Time;durP1;ratioP1;P1;durP2;ratioP2;P2;SDS_P1;SDS_P2;PMS_P1;PMS_P2;Temp;Humidity;BMP_temperature;BMP_pressure;BME280_temperature;BME280_humidity;BME280_pressure;Samples;Min_cycle;Max_cycle;Signal;HPM_P1;HPM_P2
2022/03/08 00:01:00;;;;;;;11.20;6.53;;;;;;;-1.42;75.99;93058.97;5093318;28;20086;-42
2022/03/08 00:03:26;;;;;;;11.18;7.65;;;;;;;-1.67;76.92;93082.88;5080040;28;20108;-41
2022/03/08 00:05:52;;;;;;;13.02;8.02;;;;;;;-1.84;77.84;93078.56;5073034;28;20433;-41
2022/03/08 00:08:17;;;;;;;14.32;7.88;;;;;;;-1.82;77.75;93076.13;5088610;28;20031;-41
2022/03/08 00:10:43;;;;;;;12.00;7.35;;;;;;;-1.77;77.20;93078.13;5084832;28;20051;-41
2022/03/08 00:13:09;;;;;;;15.25;8.90;;;;;;;-1.83;76.65;93074.63;5072985;28;20409;-41
2022/03/08 00:15:35;;;;;;;15.18;9.05;;;;;;;-1.89;76.83;93076.53;5071773;28;20028;-41
2022/03/08 00:18:00;;;;;;;17.63;9.57;;;;;;;-2.33;77.33;93058.66;5072825;28;20074;-41
2022/03/08 00:20:26;;;;;;;19.52;10.50;;;;;;;-2.36;78.03;93078.50;5072610;28;20039;-41
2022/03/08 00:22:52;;;;;;;14.02;8.27;;;;;;;-2.25;77.59;93071.75;5072697;28;20028;-41
2022/03/08 00:25:17;;;;;;;15.30;7.65;;;;;;;-2.38;77.76;93072.09;5072709;28;20028;-41
2022/03/08 00:27:46;;;;;;;17.92;8.55;;;;;;;-2.23;77.10;93075.44;5072289;28;20036;-41
2022/03/08 00:30:17;;;;;;;16.13;8.07;;;;;;;-2.35;76.83;93066.50;5072563;28;20024;-41
2022/03/08 00:32:43;;;;;;;8.77;5.53;;;;;;;-2.90;77.17;93078.59;5072195;28;20035;-41
2022/03/08 00:35:09;;;;;;;12.35;7.00;;;;;;;-2.82;78.76;93071.59;5072453;28;20033;-41
2022/03/08 00:37:34;;;;;;;23.58;10.88;;;;;;;-2.54;77.67;93072.66;5072447;28;20121;-41
2022/03/08 00:40:00;;;;;;;23.33;12.18;;;;;;;-2.51;77.66;93071.69;5074047;28;20490;-41
2022/03/08 00:42:26;;;;;;;24.77;11.13;;;;;;;-2.64;78.07;93066.63;5092229;28;20020;-41
2022/03/08 00:44:51;;;;;;;24.52;12.45;;;;;;;-2.52;78.89;93083.75;5092540;28;20149;-41
2022/03/08 00:47:16;;;;;;;23.33;12.40;;;;;;;-2.40;79.16;93082.63;5092430;28;20050;-41
2022/03/08 00:49:42;;;;;;;14.52;9.05;;;;;;;-2.35;78.15;93080.00;5092151;28;20417;-41
2022/03/08 00:52:08;;;;;;;13.75;8.35;;;;;;;-2.42;77.38;93079.66;5092144;28;20031;-41
2022/03/08 00:54:33;;;;;;;42.17;17.27;;;;;;;-2.20;76.77;93074.50;5092103;28;20035;-41
2022/03/08 00:56:59;;;;;;;13.88;8.35;;;;;;;-2.21;77.32;93077.69;5091990;28;20055;-41
2022/03/08 00:59:25;;;;;;;12.85;8.38;;;;;;;-2.15;77.31;93073.09;5092162;28;20024;-41
2022/03/08 01:01:50;;;;;;;34.17;15.93;;;;;;;-2.09;76.95;93077.34;5092213;28;20034;-41
2022/03/08 01:04:16;;;;;;;13.35;7.95;;;;;;;-2.03;77.40;93071.97;5085227;28;20445;-41
2022/03/08 01:06:42;;;;;;;10.45;7.20;;;;;;;-2.00;76.48;93076.44;5091819;28;20429;-41
2022/03/08 01:09:08;;;;;;;12.32;7.45;;;;;;;-1.98;76.77;93074.75;5092066;28;20031;-41
2022/03/08 01:11:36;;;;;;;11.05;6.50;;;;;;;-2.18;76.74;93074.78;5076665;28;20031;-41
2022/03/08 01:14:02;;;;;;;29.27;15.60;;;;;;;-2.08;76.54;93075.38;5071426;28;20505;-41
2022/03/08 01:16:27;;;;;;;21.52;11.38;;;;;;;-1.99;77.30;93067.84;5071320;28;20028;-41
2022/03/08 01:18:53;;;;;;;18.13;10.25;;;;;;;-1.88;77.15;93065.22;5071612;28;20024;-41
2022/03/08 01:21:18;;;;;;;26.33;12.00;;;;;;;-1.83;77.18;93061.09;5071478;28;20055;-41
2022/03/08 01:23:44;;;;;;;14.07;8.63;;;;;;;-2.06;77.20;93070.22;5071202;28;20028;-41
2022/03/08 01:26:09;;;;;;;17.42;10.73;;;;;;;-2.08;77.19;93073.41;5070366;28;20036;-41
2022/03/08 01:28:35;;;;;;;18.77;11.45;;;;;;;-1.88;76.91;93062.53;5071150;28;20035;-41
2022/03/08 01:31:01;;;;;;;20.10;10.45;;;;;;;-1.90;77.76;93069.63;5071106;28;20016;-40
2022/03/08 01:33:27;;;;;;;9.15;5.70;;;;;;;-1.99;77.79;93072.53;5071274;28;20085;-41
2022/03/08 01:35:52;;;;;;;11.68;6.53;;;;;;;-1.84;77.29;93060.34;5071267;28;20452;-41
2022/03/08 01:38:17;;;;;;;20.67;11.00;;;;;;;-1.89;77.44;93063.03;5071216;28;20033;-41
2022/03/08 01:40:43;;;;;;;17.38;9.48;;;;;;;-1.85;77.69;93056.19;5087604;28;20031;-41
2022/03/08 01:43:08;;;;;;;14.20;9.00;;;;;;;-1.93;77.96;93057.84;5111523;28;20074;-41
2022/03/08 01:45:34;;;;;;;13.93;8.68;;;;;;;-1.86;78.55;93054.69;5111641;28;20024;-41
2022/03/08 01:48:00;;;;;;;12.63;8.38;;;;;;;-1.70;78.59;93056.78;5111482;28;20081;-41
2022/03/08 01:50:26;;;;;;;13.77;9.32;;;;;;;-1.77;77.88;93056.47;5111283;28;20026;-41
2022/03/08 01:52:52;;;;;;;11.70;7.13;;;;;;;-2.07;78.17;93057.91;5111578;28;20023;-41
2022/03/08 01:55:18;;;;;;;14.38;7.65;;;;;;;-2.07;78.90;93047.09;5111259;28;20031;-41
2022/03/08 01:57:47;;;;;;;14.73;8.38;;;;;;;-1.98;78.84;93053.09;5110998;28;20075;-41
2022/03/08 02:00:15;;;;;;;10.57;7.10;;;;;;;-2.02;79.02;93052.56;5100039;28;20032;-41
2022/03/08 02:02:42;;;;;;;12.23;6.18;;;;;;;-2.13;78.89;93049.00;5083848;28;20155;-41
2022/03/08 02:05:08;;;;;;;19.63;11.20;;;;;;;-2.39;79.21;93036.22;5070399;28;20035;-41
2022/03/08 02:07:34;;;;;;;18.42;11.05;;;;;;;-2.27;80.06;93049.88;5070444;28;20028;-41
2022/03/08 02:10:00;;;;;;;18.75;11.70;;;;;;;-2.03;79.44;93058.44;5070333;28;20013;-41
2022/03/08 02:12:25;;;;;;;13.55;8.77;;;;;;;-1.88;79.24;93051.72;5070625;28;20028;-41
2022/03/08 02:14:51;;;;;;;14.15;7.55;;;;;;;-1.75;78.51;93052.06;5070648;28;20439;-41
2022/03/08 02:17:16;;;;;;;13.65;7.22;;;;;;;-1.68;78.63;93054.34;5070218;28;20036;-41
2022/03/08 02:19:42;;;;;;;12.27;7.78;;;;;;;-1.60;78.54;93055.38;5070491;28;20028;-41
2022/03/08 02:22:07;;;;;;;19.27;11.18;;;;;;;-1.53;79.13;93065.03;5070540;28;20044;-41
2022/03/08 02:24:33;;;;;;;23.83;13.90;;;;;;;-1.63;79.49;93061.03;5070220;28;20024;-41
2022/03/08 02:26:59;;;;;;;22.58;12.65;;;;;;;-1.58;79.34;93063.78;5070514;28;20032;-41
2022/03/08 02:29:24;;;;;;;21.52;14.30;;;;;;;-1.50;79.16;93061.38;5070088;28;20483;-41
2022/03/08 02:31:50;;;;;;;29.85;16.52;;;;;;;-1.41;78.64;93069.34;5070535;28;20028;-41
2022/03/08 02:34:16;;;;;;;36.00;22.98;;;;;;;-1.39;78.84;93068.84;5070070;28;20028;-41
2022/03/08 02:36:56;;;;;;;36.42;22.92;;;;;;;-1.56;79.00;93061.31;5070156;28;20039;-41
2022/03/08 02:39:21;;;;;;;30.70;18.67;;;;;;;-1.38;78.95;93064.91;5069923;28;20032;-41
2022/03/08 02:41:46;;;;;;;28.35;16.17;;;;;;;-1.25;78.40;93073.38;5104495;28;20405;-41
2022/03/08 02:44:13;;;;;;;21.67;14.95;;;;;;;-1.25;77.74;93062.53;5110851;28;20028;-41
2022/03/08 02:46:38;;;;;;;23.13;14.02;;;;;;;-1.36;77.95;93062.44;5110578;28;20493;-41
2022/03/08 02:49:04;;;;;;;20.73;12.57;;;;;;;-1.41;78.45;93060.47;5110491;28;20027;-41
2022/03/08 02:51:29;;;;;;;21.67;14.00;;;;;;;-1.38;78.83;93070.31;5110795;28;20035;-41
2022/03/08 02:53:55;;;;;;;21.42;14.02;;;;;;;-1.33;78.43;93075.78;5110404;28;20034;-41
2022/03/08 02:56:21;;;;;;;44.63;21.95;;;;;;;-1.22;78.79;93080.53;5100049;28;20044;-41
2022/03/08 02:58:47;;;;;;;34.40;16.08;;;;;;;-1.16;77.84;93076.63;5090081;28;20032;-41
2022/03/08 03:01:12;;;;;;;28.95;16.80;;;;;;;-1.21;78.06;93082.03;5089941;28;20024;-41
2022/03/08 03:03:38;;;;;;;36.13;19.25;;;;;;;-1.17;78.08;93077.13;5075488;28;20025;-41
2022/03/08 03:06:03;;;;;;;47.38;23.80;;;;;;;-1.09;78.32;93072.75;5069821;28;20099;-41
2022/03/08 03:08:28;;;;;;;37.63;21.48;;;;;;;-1.11;77.69;93080.63;5069855;28;20033;-41
2022/03/08 03:10:54;;;;;;;37.15;20.45;;;;;;;-1.04;77.55;93080.91;5069897;28;20491;-41
2022/03/08 03:13:19;;;;;;;35.83;19.33;;;;;;;-0.93;76.54;93088.34;5070035;28;20431;-41
2022/03/08 03:15:45;;;;;;;28.42;17.52;;;;;;;-1.01;76.75;93093.50;5069654;28;20486;-41
2022/03/08 03:18:10;;;;;;;24.60;14.63;;;;;;;-0.96;76.37;93089.34;5070024;28;20028;-41
2022/03/08 03:20:36;;;;;;;25.80;14.70;;;;;;;-1.03;76.59;93087.06;5069548;28;20067;-41
2022/03/08 03:23:02;;;;;;;23.17;13.93;;;;;;;-1.10;77.01;93092.91;5069614;28;20166;-41
2022/03/08 03:25:27;;;;;;;24.33;14.25;;;;;;;-1.08;77.75;93099.34;5069937;28;20032;-41
2022/03/08 03:27:53;;;;;;;30.98;17.27;;;;;;;-1.09;78.13;93097.13;5069843;28;20448;-41
2022/03/08 03:30:18;;;;;;;28.90;16.92;;;;;;;-1.13;78.14;93096.59;5069562;28;20028;-41
2022/03/08 03:32:44;;;;;;;25.65;15.30;;;;;;;-1.12;78.40;93100.78;5069881;28;20108;-41
2022/03/08 03:35:11;;;;;;;27.60;15.60;;;;;;;-0.91;77.52;93100.19;5069513;28;20094;-41
2022/03/08 03:37:37;;;;;;;29.65;15.35;;;;;;;-0.90;77.59;93101.69;5069847;28;20020;-41
2022/03/08 03:40:04;;;;;;;27.67;16.85;;;;;;;-0.95;77.73;93096.22;5074705;28;20029;-41
2022/03/08 03:42:29;;;;;;;26.98;15.40;;;;;;;-1.05;77.41;93094.94;5110312;28;20106;-41
2022/03/08 03:44:55;;;;;;;20.83;11.88;;;;;;;-1.22;77.94;93102.19;5110297;28;20381;-41
2022/03/08 03:47:20;;;;;;;17.73;10.13;;;;;;;-1.18;77.69;93094.59;5110278;28;20019;-41
2022/03/08 03:49:46;;;;;;;26.92;18.60;;;;;;;-1.23;78.23;93103.41;5110917;28;20462;-41
2022/03/08 03:52:11;;;;;;;31.48;20.85;;;;;;;-1.28;78.26;93096.00;5106787;28;20102;-41
2022/03/08 03:54:37;;;;;;;35.22;22.50;;;;;;;-1.21;77.93;93101.72;5093516;28;20110;-41
2022/03/08 03:57:03;;;;;;;35.28;24.95;;;;;;;-1.19;78.17;93099.25;5093202;28;20417;-41
2022/03/08 03:59:28;;;;;;;29.08;17.92;;;;;;;-1.23;78.40;93096.03;5092957;28;20036;-41
2022/03/08 04:01:54;;;;;;;28.27;18.63;;;;;;;-1.39;78.62;93093.22;5092666;28;20081;-41
2022/03/08 04:04:19;;;;;;;21.85;14.20;;;;;;;-1.30;78.76;93096.47;5072744;28;20089;-41
2022/03/08 04:06:45;;;;;;;22.67;14.45;;;;;;;-1.22;78.62;93096.78;5072753;28;20024;-41
2022/03/08 04:09:10;;;;;;;20.60;12.85;;;;;;;-1.21;79.04;93093.59;5072666;28;20021;-41
2022/03/08 04:11:36;;;;;;;22.48;13.18;;;;;;;-1.06;78.39;93091.47;5072534;28;20028;-41
2022/03/08 04:14:02;;;;;;;16.85;10.57;;;;;;;-1.05;78.34;93097.66;5072658;28;20063;-41
2022/03/08 04:16:27;;;;;;;14.63;8.82;;;;;;;-1.04;78.88;93091.00;5072501;28;20024;-41
2022/03/08 04:18:53;;;;;;;13.05;9.30;;;;;;;-1.05;78.35;93092.97;5072834;28;20111;-41
2022/03/08 04:21:18;;;;;;;13.50;7.95;;;;;;;-1.13;78.49;93093.91;5072653;28;20421;-41
2022/03/08 04:23:44;;;;;;;10.52;6.85;;;;;;;-1.11;78.17;93086.03;5072673;28;20541;-41
2022/03/08 04:26:09;;;;;;;53.83;23.35;;;;;;;-1.10;77.94;93085.53;5072409;28;20810;-41
2022/03/08 04:28:35;;;;;;;37.88;16.80;;;;;;;-1.20;78.70;93088.91;5072320;28;20031;-41
2022/03/08 04:31:00;;;;;;;77.53;33.13;;;;;;;-1.13;78.22;93086.53;5072326;28;20024;-41
2022/03/08 04:33:26;;;;;;;35.92;17.40;;;;;;;-1.12;78.60;93088.00;5072454;28;20032;-41
2022/03/08 04:35:51;;;;;;;13.82;8.65;;;;;;;-1.18;78.62;93089.94;5072239;28;20458;-41
2022/03/08 04:38:17;;;;;;;12.57;7.30;;;;;;;-1.17;78.41;93085.25;5072148;28;20032;-41
2022/03/08 04:40:42;;;;;;;16.67;9.75;;;;;;;-1.09;78.51;93089.00;5088277;28;20072;-41
2022/03/08 04:43:08;;;;;;;22.33;12.88;;;;;;;-1.07;77.97;93084.59;5112993;28;20076;-41
2022/03/08 04:45:33;;;;;;;25.95;14.18;;;;;;;-1.03;77.73;93078.94;5112577;28;20032;-41
2022/03/08 04:47:59;;;;;;;31.17;16.92;;;;;;;-1.08;77.89;93079.63;5109692;28;20070;-41
2022/03/08 04:50:24;;;;;;;30.00;17.15;;;;;;;-1.25;78.53;93076.06;5092096;28;20035;-41
2022/03/08 04:52:50;;;;;;;32.97;17.35;;;;;;;-1.12;78.32;93073.69;5092444;28;20035;-41
2022/03/08 04:55:17;;;;;;;35.13;19.40;;;;;;;-1.09;78.27;93075.47;5092320;28;20043;-41
2022/03/08 04:57:43;;;;;;;42.88;22.27;;;;;;;-1.21;78.28;93058.38;5091773;28;20441;-41
2022/03/08 05:00:13;;;;;;;37.83;21.42;;;;;;;-1.11;79.00;93070.53;5092126;28;20035;-42
2022/03/08 05:02:39;;;;;;;51.78;26.52;;;;;;;-1.16;78.89;93060.38;5085476;28;20055;-41
2022/03/08 05:05:08;;;;;;;40.72;22.73;;;;;;;-1.03;79.43;93081.66;5071590;28;20117;-41
2022/03/08 05:07:38;;;;;;;45.28;23.50;;;;;;;-0.93;78.69;93083.69;5071866;28;20411;-41
2022/03/08 05:10:08;;;;;;;36.35;20.92;;;;;;;-0.92;78.20;93079.75;5071475;28;20651;-41
2022/03/08 05:12:34;;;;;;;39.22;19.70;;;;;;;-0.97;78.38;93082.41;5071482;28;20036;-41
2022/03/08 05:15:00;;;;;;;39.53;20.20;;;;;;;-1.02;78.96;93086.56;5071471;28;20035;-41
2022/03/08 05:17:25;;;;;;;32.60;17.77;;;;;;;-0.98;78.59;93089.81;5071273;28;20028;-41
2022/03/08 05:19:51;;;;;;;35.00;19.33;;;;;;;-1.09;79.01;93094.41;5071337;28;20024;-41
2022/03/08 05:22:17;;;;;;;43.30;21.55;;;;;;;-0.92;78.39;93084.44;5071179;28;20029;-41
2022/03/08 05:24:42;;;;;;;36.60;19.00;;;;;;;-0.86;78.00;93090.63;5071607;28;20108;-41
2022/03/08 05:27:08;;;;;;;36.17;20.75;;;;;;;-0.84;77.97;93085.44;5071114;28;20505;-41
2022/03/08 05:29:34;;;;;;;34.03;20.05;;;;;;;-0.80;78.28;93078.59;5071368;28;20048;-41
2022/03/08 05:31:59;;;;;;;43.60;24.95;;;;;;;-0.72;77.61;93076.16;5071444;28;20455;-41
2022/03/08 05:34:25;;;;;;;42.08;25.13;;;;;;;-0.71;77.75;93085.06;5071278;28;20036;-41
2022/03/08 05:36:50;;;;;;;40.80;23.35;;;;;;;-0.74;77.26;93065.06;5071385;28;20028;-41
2022/03/08 05:39:16;;;;;;;36.00;20.92;;;;;;;-0.55;77.11;93084.38;5071155;28;20039;-41
2022/03/08 05:41:41;;;;;;;34.92;20.35;;;;;;;-0.58;77.29;93085.34;5087034;28;20020;-41
2022/03/08 05:44:07;;;;;;;39.53;21.25;;;;;;;-0.58;77.51;93080.66;5091039;28;20073;-41
2022/03/08 05:46:32;;;;;;;37.78;22.20;;;;;;;-0.46;77.07;93084.16;5091066;28;20023;-41
2022/03/08 05:48:58;;;;;;;48.25;22.35;;;;;;;-0.37;76.90;93083.97;5091095;28;20028;-41
2022/03/08 05:51:23;;;;;;;28.27;16.60;;;;;;;-0.26;76.01;93084.72;5091267;28;20024;-41
2022/03/08 05:53:49;;;;;;;22.13;12.82;;;;;;;-0.17;75.56;93095.38;5091242;28;20089;-41
2022/03/08 05:56:15;;;;;;;43.58;21.17;;;;;;;-0.17;74.33;93076.38;5090835;28;20674;-41
2022/03/08 05:58:40;;;;;;;36.40;18.08;;;;;;;-0.06;74.22;93087.28;5091189;28;20054;-41
2022/03/08 06:01:05;;;;;;;18.75;10.80;;;;;;;0.03;73.71;93091.72;5091021;28;20031;-41
2022/03/08 06:03:31;;;;;;;13.32;8.95;;;;;;;0.00;73.02;93085.31;5077115;28;20418;-41
2022/03/08 06:05:56;;;;;;;14.63;7.93;;;;;;;0.17;73.37;93087.34;5070751;28;20029;-41
2022/03/08 06:08:22;;;;;;;11.88;8.20;;;;;;;0.24;72.76;93089.56;5070802;28;20401;-41
2022/03/08 06:10:47;;;;;;;12.43;7.57;;;;;;;0.22;71.83;93092.03;5070615;28;20496;-41
2022/03/08 06:13:13;;;;;;;11.95;8.00;;;;;;;0.14;72.69;93099.91;5070124;28;20081;-41
2022/03/08 06:15:38;;;;;;;13.20;6.90;;;;;;;0.18;73.31;93100.41;5070349;28;20119;-41
2022/03/08 06:18:04;;;;;;;11.43;6.97;;;;;;;0.32;72.26;93101.44;5070299;28;20036;-41
2022/03/08 06:20:30;;;;;;;11.10;6.78;;;;;;;0.38;71.59;93099.47;5070289;28;20032;-41
2022/03/08 06:22:55;;;;;;;13.70;8.15;;;;;;;0.32;71.61;93107.59;5070244;28;20020;-42
2022/03/08 06:25:21;;;;;;;8.10;5.28;;;;;;;0.35;71.19;93112.03;5070565;28;20028;-41
2022/03/08 06:27:46;;;;;;;7.07;5.22;;;;;;;0.40;71.33;93118.72;5070163;28;20498;-41
2022/03/08 06:30:12;;;;;;;9.32;5.90;;;;;;;0.43;71.08;93115.03;5070467;28;20051;-41
2022/03/08 06:32:37;;;;;;;7.45;5.25;;;;;;;0.37;71.10;93117.00;5070179;28;20024;-41
2022/03/08 06:35:03;;;;;;;9.20;5.95;;;;;;;0.35;70.47;93116.72;5070107;28;20056;-41
2022/03/08 06:37:29;;;;;;;7.85;6.03;;;;;;;0.43;70.42;93120.47;5052530;28;20063;-41
2022/03/08 06:39:54;;;;;;;10.13;6.20;;;;;;;0.43;70.22;93129.34;5071618;28;20050;-41
2022/03/08 06:42:20;;;;;;;8.68;6.63;;;;;;;0.50;70.31;93133.53;5090066;28;20032;-41
2022/03/08 06:44:45;;;;;;;29.50;7.95;;;;;;;0.36;71.31;93124.41;5090184;28;20116;-41
2022/03/08 06:47:11;;;;;;;10.75;6.22;;;;;;;0.45;69.68;93129.59;5090185;28;20016;-41
2022/03/08 06:49:37;;;;;;;11.50;7.72;;;;;;;0.46;70.31;93130.31;5090459;28;20031;-41
2022/03/08 06:52:05;;;;;;;10.20;6.40;;;;;;;0.44;70.19;93135.50;5090446;28;20027;-41
2022/03/08 06:54:30;;;;;;;9.55;5.90;;;;;;;0.56;69.71;93131.59;5090090;28;20028;-41
2022/03/08 06:56:56;;;;;;;10.73;6.45;;;;;;;0.56;69.54;93129.59;5090031;28;20134;-41
2022/03/08 06:59:22;;;;;;;8.98;5.82;;;;;;;0.54;69.67;93131.34;5090080;28;20463;-41
2022/03/08 07:01:48;;;;;;;30.55;9.02;;;;;;;0.74;69.41;93133.81;5089984;28;20493;-41
2022/03/08 07:04:13;;;;;;;8.73;5.95;;;;;;;0.94;68.85;93130.13;5090209;28;20024;-41
2022/03/08 07:06:39;;;;;;;10.90;6.53;;;;;;;1.19;68.37;93129.13;5090349;28;20027;-42
2022/03/08 07:09:05;;;;;;;9.85;5.32;;;;;;;1.24;66.93;93137.28;5090336;28;20120;-41
2022/03/08 07:11:31;;;;;;;8.80;6.25;;;;;;;1.34;67.95;93135.03;5075419;28;20091;-40
2022/03/08 07:13:57;;;;;;;8.45;5.78;;;;;;;1.58;66.86;93137.22;5069743;28;20090;-41
2022/03/08 07:16:23;;;;;;;11.13;7.05;;;;;;;1.67;65.59;93118.63;5070092;28;20029;-41
2022/03/08 07:18:48;;;;;;;12.63;8.75;;;;;;;2.01;64.63;93130.16;5069985;28;20086;-41
2022/03/08 07:21:14;;;;;;;8.43;5.93;;;;;;;2.20;64.77;93136.50;5069638;28;20037;-41
2022/03/08 07:23:39;;;;;;;6.80;5.07;;;;;;;2.42;64.06;93132.94;5070116;28;20103;-42
2022/03/08 07:26:05;;;;;;;9.38;6.28;;;;;;;2.37;63.80;93130.97;5073550;28;20024;-41
2022/03/08 07:28:31;;;;;;;10.27;6.72;;;;;;;2.31;63.76;93125.56;5073785;28;20115;-41
2022/03/08 07:30:56;;;;;;;12.75;8.65;;;;;;;2.23;63.53;93130.06;5072766;28;20032;-41
2022/03/08 07:33:21;;;;;;;7.68;5.63;;;;;;;2.36;63.69;93124.78;5072865;28;20025;-41
2022/03/08 07:35:47;;;;;;;14.40;9.73;;;;;;;2.38;62.97;93130.47;5073655;28;20033;-42
2022/03/08 07:38:12;;;;;;;24.52;14.15;;;;;;;2.47;63.72;93132.88;5088475;28;20032;-41
2022/03/08 07:40:38;;;;;;;25.52;15.18;;;;;;;2.50;63.66;93131.16;5093381;28;20073;-41
2022/03/08 07:43:04;;;;;;;24.05;13.23;;;;;;;2.44;63.84;93125.75;5093877;28;20481;-41
2022/03/08 07:45:30;;;;;;;23.60;12.05;;;;;;;2.24;62.95;93131.53;5093402;28;20032;-42
2022/03/08 07:47:56;;;;;;;22.25;13.02;;;;;;;2.21;64.02;93135.25;5093366;28;20043;-41
2022/03/08 07:50:22;;;;;;;10.57;5.97;;;;;;;2.03;61.73;93133.88;5093663;28;20024;-42
2022/03/08 07:52:48;;;;;;;6.68;4.88;;;;;;;1.96;62.91;93133.63;5093200;28;20032;-42
2022/03/08 07:55:13;;;;;;;8.05;4.65;;;;;;;2.12;62.66;93133.56;5093274;28;20020;-41
2022/03/08 07:57:39;;;;;;;4.78;3.90;;;;;;;2.25;62.43;93124.84;5093058;28;20074;-41
2022/03/08 08:00:06;;;;;;;9.57;6.20;;;;;;;2.12;62.68;93124.66;5093073;28;20486;-41
2022/03/08 08:02:32;;;;;;;6.80;4.68;;;;;;;2.27;61.16;93114.19;5093152;28;20099;-41
2022/03/08 08:04:57;;;;;;;5.68;4.15;;;;;;;2.26;60.67;93131.78;5093300;28;20501;-41
2022/03/08 08:07:23;;;;;;;6.28;4.43;;;;;;;2.03;61.91;93105.91;5093310;28;20554;-42
2022/03/08 08:09:48;;;;;;;5.28;3.80;;;;;;;2.09;60.76;93122.94;5092528;28;20039;-41
2022/03/08 08:12:14;;;;;;;5.13;4.00;;;;;;;1.86;61.83;93114.13;5072632;28;20020;-41
2022/03/08 08:14:39;;;;;;;6.80;5.65;;;;;;;2.04;62.15;93123.69;5055128;28;20024;-41
2022/03/08 08:17:05;;;;;;;8.38;6.18;;;;;;;2.27;62.70;93125.81;5072582;28;20489;-41
2022/03/08 08:19:31;;;;;;;5.57;4.63;;;;;;;2.34;62.06;93129.28;5072761;28;20074;-41
2022/03/08 08:21:56;;;;;;;5.00;4.10;;;;;;;2.74;58.63;93129.28;5072704;28;20498;-41
2022/03/08 08:24:23;;;;;;;4.57;3.58;;;;;;;3.86;56.88;93127.03;5072697;28;20028;-41
2022/03/08 08:26:48;;;;;;;5.45;4.35;;;;;;;3.85;54.57;93120.81;5072701;28;20421;-41
2022/03/08 08:29:13;;;;;;;7.28;5.38;;;;;;;3.77;55.39;93127.38;5072680;28;20024;-41
2022/03/08 08:31:39;;;;;;;7.15;5.25;;;;;;;3.51;56.27;93127.88;5072689;28;20024;-41
2022/03/08 08:34:04;;;;;;;8.02;5.85;;;;;;;3.41;56.12;93128.72;5084080;28;20413;-41
2022/03/08 08:36:30;;;;;;;11.05;7.53;;;;;;;3.34;56.94;93130.03;5091782;28;20038;-41
2022/03/08 08:38:55;;;;;;;11.70;8.48;;;;;;;3.38;56.51;93130.47;5092761;28;20063;-41
2022/03/08 08:41:21;;;;;;;12.80;7.95;;;;;;;3.16;55.52;93130.69;5092237;28;20020;-40
2022/03/08 08:43:46;;;;;;;11.45;8.40;;;;;;;3.22;55.94;93131.38;5092579;28;20486;-41
2022/03/08 08:46:12;;;;;;;24.92;13.10;;;;;;;3.41;56.40;93128.72;5092532;28;20485;-41
2022/03/08 08:48:37;;;;;;;11.82;7.50;;;;;;;3.75;55.90;93132.59;5092158;28;20117;-41
2022/03/08 08:51:03;;;;;;;31.67;16.27;;;;;;;4.06;55.66;93137.50;5092497;28;20027;-41
2022/03/08 08:53:28;;;;;;;10.80;6.80;;;;;;;3.73;53.21;93132.38;5091960;28;20054;-42
2022/03/08 08:55:54;;;;;;;11.88;7.78;;;;;;;3.18;55.46;93141.09;5091913;28;20048;-41
2022/03/08 08:58:19;;;;;;;8.68;6.45;;;;;;;4.17;52.89;93133.88;5092259;28;20031;-41
2022/03/08 09:00:44;;;;;;;10.35;6.90;;;;;;;5.15;49.20;93124.84;5092141;28;20016;-41
2022/03/08 09:03:14;;;;;;;12.30;8.07;;;;;;;5.68;48.27;93131.91;5091812;28;20485;-41
2022/03/08 09:05:42;;;;;;;13.32;8.38;;;;;;;6.87;45.73;93128.56;5092164;28;20024;-41
2022/03/08 09:08:08;;;;;;;10.68;7.78;;;;;;;7.86;42.68;93126.72;5092059;28;20045;-42
2022/03/08 09:10:33;;;;;;;11.65;7.78;;;;;;;8.15;43.69;93122.69;5085186;28;20490;-41
2022/03/08 09:12:59;;;;;;;11.40;8.07;;;;;;;7.90;42.06;93127.84;5071805;28;20395;-42
2022/03/08 09:15:24;;;;;;;11.07;7.53;;;;;;;7.10;42.20;93123.31;5071514;28;20020;-41
2022/03/08 09:17:50;;;;;;;11.82;9.05;;;;;;;7.09;45.01;93121.84;5071719;28;20023;-41
2022/03/08 09:20:15;;;;;;;24.45;15.57;;;;;;;7.14;43.99;93104.50;5071529;28;20406;-42
2022/03/08 09:22:41;;;;;;;29.40;18.10;;;;;;;7.21;44.17;93094.88;5071340;28;20409;-41
2022/03/08 09:25:07;;;;;;;27.27;15.05;;;;;;;7.10;44.10;93111.59;5071523;28;20036;-42
2022/03/08 09:27:34;;;;;;;32.22;18.83;;;;;;;8.26;44.16;93116.91;5071228;28;20017;-42
2022/03/08 09:30:00;;;;;;;40.08;20.35;;;;;;;8.62;41.39;93123.13;5080228;28;20020;-41
2022/03/08 09:32:25;;;;;;;25.00;16.55;;;;;;;10.10;39.55;93121.00;5091622;28;20095;-42
2022/03/08 09:34:51;;;;;;;15.27;10.45;;;;;;;11.05;34.92;93114.31;5091280;28;20493;-42
2022/03/08 09:37:16;;;;;;;12.45;9.00;;;;;;;11.59;33.40;93114.72;5091532;28;20027;-42
2022/03/08 09:39:42;;;;;;;15.50;10.70;;;;;;;12.04;31.85;93115.13;5091196;28;20103;-42
2022/03/08 09:42:09;;;;;;;12.02;9.18;;;;;;;12.04;33.31;93120.66;5091126;28;20028;-42
2022/03/08 09:44:36;;;;;;;10.57;9.20;;;;;;;13.39;33.29;93126.06;5073078;28;20401;-42
2022/03/08 09:47:02;;;;;;;12.85;9.35;;;;;;;13.86;30.46;93124.84;5090914;28;20408;-42
2022/03/08 09:49:27;;;;;;;13.82;10.88;;;;;;;13.65;30.32;93124.59;5090705;28;20111;-42
2022/03/08 09:51:53;;;;;;;12.95;10.25;;;;;;;11.75;30.98;93130.69;5091400;28;20020;-42
2022/03/08 09:54:18;;;;;;;13.10;10.50;;;;;;;10.45;34.24;93129.06;5091271;28;20385;-42
2022/03/08 09:56:44;;;;;;;13.60;11.00;;;;;;;9.63;35.21;93129.84;5090795;28;20051;-42
2022/03/08 09:59:09;;;;;;;16.20;11.13;;;;;;;9.07;36.07;93137.06;5091126;28;20028;-41
2022/03/08 10:01:35;;;;;;;17.10;12.13;;;;;;;9.02;38.04;93137.25;5091134;28;20016;-41
2022/03/08 10:04:01;;;;;;;15.50;11.43;;;;;;;9.07;38.46;93125.34;5072781;28;20482;-41
2022/03/08 10:06:39;;;;;;;13.85;9.45;;;;;;;8.96;37.03;93129.16;5070508;28;20039;-42
2022/03/08 10:09:12;;;;;;;12.37;8.70;;;;;;;8.46;35.54;93134.63;5070600;28;20030;-42
2022/03/08 10:11:38;;;;;;;12.23;9.10;;;;;;;8.06;36.85;93131.41;5070343;28;20482;-42
2022/03/08 10:14:04;;;;;;;20.83;11.15;;;;;;;7.57;38.37;93128.69;5070507;28;20046;-42
2022/03/08 10:16:41;;;;;;;15.70;10.63;;;;;;;7.27;39.97;93131.16;5052467;28;20033;-42
2022/03/08 10:19:09;;;;;;;14.70;10.40;;;;;;;7.14;40.27;93126.47;5070404;28;20590;-41
2022/03/08 10:21:34;;;;;;;15.48;10.60;;;;;;;7.07;40.57;93131.88;5070662;28;20570;-41
2022/03/08 10:24:13;;;;;;;16.45;11.95;;;;;;;7.22;40.11;93130.03;5070273;28;20107;-42
2022/03/08 10:26:59;;;;;;;17.48;11.30;;;;;;;7.55;39.12;93131.22;5082808;28;20020;-42
2022/03/08 10:29:26;;;;;;;15.45;11.05;;;;;;;6.96;37.86;93135.59;5090453;28;20110;-42
2022/03/08 10:32:17;;;;;;;15.73;11.68;;;;;;;6.94;41.67;93134.66;5090743;28;20019;-42
2022/03/08 10:34:43;;;;;;;17.77;12.82;;;;;;;6.99;41.13;93131.81;5090685;28;20024;-42
2022/03/08 10:37:17;;;;;;;21.27;13.93;;;;;;;7.07;40.94;93138.09;5090514;28;20099;-42
2022/03/08 10:39:55;;;;;;;20.30;11.55;;;;;;;6.72;42.10;93128.41;5090239;28;20048;-42
2022/03/08 10:42:25;;;;;;;14.32;10.40;;;;;;;5.94;40.61;93133.94;5090202;28;20093;-42
2022/03/08 10:44:52;;;;;;;14.20;9.50;;;;;;;5.85;43.56;93129.63;5090533;28;20060;-41
2022/03/08 10:47:17;;;;;;;15.90;11.90;;;;;;;5.89;43.78;93123.84;5090456;28;20051;-41
2022/03/08 10:49:52;;;;;;;13.95;10.07;;;;;;;5.93;44.51;93135.94;5090231;28;20027;-42
2022/03/08 10:52:18;;;;;;;15.02;10.88;;;;;;;6.20;43.41;93130.47;5090362;28;20028;-42
2022/03/08 10:54:43;;;;;;;14.38;10.25;;;;;;;6.27;42.67;93129.84;5072115;28;20089;-41
2022/03/08 10:57:09;;;;;;;18.08;12.07;;;;;;;5.97;43.68;93125.44;5089949;28;20044;-41
2022/03/08 10:59:35;;;;;;;18.20;11.95;;;;;;;5.82;44.21;93133.41;5092484;28;20039;-41
2022/03/08 11:02:21;;;;;;;20.27;13.52;;;;;;;5.68;43.29;93139.38;5094164;28;20433;-41
2022/03/08 11:04:47;;;;;;;20.00;13.07;;;;;;;5.60;44.83;93136.53;5094190;28;20102;-41
2022/03/08 11:07:12;;;;;;;21.20;14.02;;;;;;;5.96;45.34;93136.91;5094448;28;20064;-41
2022/03/08 11:09:38;;;;;;;14.63;10.82;;;;;;;5.98;45.30;93140.59;5094221;28;20032;-41
2022/03/08 11:12:04;;;;;;;18.08;11.52;;;;;;;6.46;44.46;93139.41;5056665;28;20566;-41
2022/03/08 11:14:30;;;;;;;20.55;13.63;;;;;;;6.68;44.71;93132.72;5074141;28;20108;-41
2022/03/08 11:16:56;;;;;;;18.02;12.38;;;;;;;6.70;45.44;93109.00;5074066;28;20528;-42
2022/03/08 11:19:26;;;;;;;21.63;14.32;;;;;;;6.79;44.86;93094.81;5055822;28;20099;-41